Time;durP1;ratioP1;P1;durP2;ratioP2;P2;SDS_P1;SDS_P2;PMS_P1;PMS_P2;Temp;Humidity;BMP_temperature;BMP_pressure;BME280_temperature;BME280_humidity;BME280_pressure;Samples;Min_cycle;Max_cycle;Signal;HPM_P1;HPM_P2
2024/01/07 15:51:49;;;;;;;5.13;2.33;;;13.70;99.90;;;;;;5088937;28;20992;-49
2024/01/07 15:54:16;;;;;;;2.63;1.90;;;15.50;94.40;;;;;;5090365;28;20528;-49
2024/01/07 15:56:43;;;;;;;3.53;1.95;;;16.30;90.60;;;;;;5088348;28;20774;-48
2024/01/07 15:59:10;;;;;;;4.47;1.95;;;16.90;85.40;;;;;;5089984;28;20056;-56
2024/01/07 16:01:37;;;;;;;7.93;1.88;;;17.90;91.70;;;;;;5088537;28;20094;-53
2024/01/07 16:04:04;;;;;;;3.92;1.90;;;19.90;78.40;;;;;;5090072;28;20621;-55
2024/01/07 16:06:31;;;;;;;5.85;2.03;;;19.80;74.30;;;;;;5071843;28;20615;-54
2024/01/07 16:08:58;;;;;;;3.00;1.67;;;19.60;73.50;;;;;;5089934;28;20108;-54
2024/01/07 16:11:25;;;;;;;4.03;1.70;;;19.50;74.90;;;;;;5089594;28;20111;-54
2024/01/07 16:13:52;;;;;;;4.55;1.77;;;19.40;75.20;;;;;;5088515;28;20128;-53
2024/01/07 16:16:19;;;;;;;3.70;1.80;;;19.40;74.90;;;;;;5086644;28;20120;-56
2024/01/07 16:18:46;;;;;;;4.63;1.48;;;19.30;75.30;;;;;;5083613;28;20124;-56
2024/01/07 16:21:13;;;;;;;2.15;1.45;;;19.30;74.80;;;;;;5087918;28;20732;-54
2024/01/07 16:23:40;;;;;;;1.67;1.50;;;19.40;75.20;;;;;;5083591;28;20199;-54
2024/01/07 16:26:07;;;;;;;2.00;1.45;;;19.30;75.00;;;;;;5081340;28;20595;-53
2024/01/07 16:28:34;;;;;;;3.15;1.98;;;19.40;75.10;;;;;;5085335;28;20116;-55
2024/01/07 16:31:01;;;;;;;2.25;1.52;;;19.30;73.90;;;;;;5071836;28;32034;-54
2024/01/07 16:33:29;;;;;;;3.05;1.65;;;19.30;73.90;;;;;;5089180;28;20581;-54
2024/01/07 16:35:56;;;;;;;3.28;1.58;;;19.30;73.30;;;;;;5088166;28;20119;-55
2024/01/07 16:38:23;;;;;;;2.47;1.55;;;19.40;73.30;;;;;;5087628;28;20586;-55
2024/01/07 16:40:50;;;;;;;2.88;1.75;;;19.40;73.00;;;;;;5070650;28;20124;-55
2024/01/07 16:43:17;;;;;;;2.28;1.42;;;19.40;72.90;;;;;;5088947;28;20527;-55
2024/01/07 16:45:44;;;;;;;2.83;1.45;;;19.40;72.50;;;;;;5087442;28;20211;-55
2024/01/07 16:48:11;;;;;;;1.70;1.50;;;19.40;72.90;;;;;;5087513;28;24319;-55
2024/01/07 16:50:58;;;;;;;2.05;1.33;;;19.50;72.50;;;;;;5088705;28;20120;-55
2024/01/07 16:53:25;;;;;;;1.80;1.50;;;19.40;72.40;;;;;;5088847;28;20108;-54
2024/01/07 16:55:52;;;;;;;1.35;1.20;;;19.40;72.60;;;;;;5088739;28;20119;-55
2024/01/07 16:58:20;;;;;;;2.28;1.55;;;19.40;72.60;;;;;;5089108;28;20480;-55
2024/01/07 17:00:47;;;;;;;1.38;1.23;;;19.40;72.20;;;;;;5088630;28;20120;-54
2024/01/07 17:03:14;;;;;;;1.80;1.30;;;19.40;72.40;;;;;;5075313;28;20131;-55
2024/01/07 17:05:42;;;;;;;1.50;1.30;;;19.40;72.20;;;;;;5075202;28;20116;-55
2024/01/07 17:08:09;;;;;;;1.95;1.20;;;19.40;72.10;;;;;;5075280;28;20112;-55
2024/01/07 17:10:36;;;;;;;1.55;1.45;;;19.40;72.50;;;;;;5074940;28;20112;-55
2024/01/07 17:13:03;;;;;;;2.30;1.40;;;19.40;72.30;;;;;;5074107;28;20139;-54
2024/01/07 17:15:30;;;;;;;1.88;1.33;;;19.40;72.20;;;;;;5075180;28;20120;-55
2024/01/07 17:17:58;;;;;;;1.60;1.45;;;19.50;71.80;;;;;;5074682;28;20117;-55
2024/01/07 17:20:25;;;;;;;1.60;1.15;;;19.50;72.00;;;;;;5074972;28;20179;-55
2024/01/07 17:22:52;;;;;;;2.63;1.60;;;19.50;72.10;;;;;;5074586;28;20108;-55
2024/01/07 17:25:20;;;;;;;1.58;1.40;;;19.50;71.80;;;;;;5075019;28;20142;-55
2024/01/07 17:27:49;;;;;;;1.73;1.60;;;19.50;72.10;;;;;;5073868;28;20112;-55
2024/01/07 17:30:17;;;;;;;2.78;1.40;;;19.40;71.90;;;;;;5067898;28;20178;-55
2024/01/07 17:32:44;;;;;;;1.38;1.25;;;19.40;71.80;;;;;;5073479;28;20116;-55
2024/01/07 17:35:11;;;;;;;1.50;1.40;;;19.40;72.00;;;;;;5074295;28;20593;-54
2024/01/07 17:37:38;;;;;;;3.10;1.70;;;19.30;72.30;;;;;;5084527;28;20122;-52
2024/01/07 17:40:06;;;;;;;1.27;1.17;;;19.40;72.60;;;;;;5074864;28;20580;-56
2024/01/07 17:42:33;;;;;;;3.33;1.50;;;19.40;74.10;;;;;;5073332;28;23251;-54
2024/01/07 17:45:00;;;;;;;5.50;1.55;;;19.40;73.40;;;;;;5074496;28;20112;-53
2024/01/07 17:47:27;;;;;;;2.63;1.60;;;19.50;73.50;;;;;;5072395;28;20124;-51
2024/01/07 17:49:54;;;;;;;1.98;1.77;;;19.40;74.10;;;;;;5077140;28;20136;-53
2024/01/07 17:52:21;;;;;;;1.60;1.50;;;19.40;73.90;;;;;;5073213;28;20112;-55
2024/01/07 17:54:48;;;;;;;4.82;2.20;;;19.40;75.50;;;;;;5074059;28;20112;-55
2024/01/07 17:57:15;;;;;;;2.25;1.70;;;19.30;76.30;;;;;;5072959;28;20592;-54
2024/01/07 17:59:43;;;;;;;3.60;1.80;;;19.40;76.60;;;;;;5073505;28;20194;-54
2024/01/07 18:02:10;;;;;;;2.17;1.50;;;19.40;76.60;;;;;;5072916;28;20543;-54
2024/01/07 18:04:40;;;;;;;2.08;1.55;;;19.50;76.20;;;;;;5074312;28;20108;-55
2024/01/07 18:07:07;;;;;;;3.35;1.98;;;19.50;76.00;;;;;;5074106;28;20186;-55
2024/01/07 18:09:34;;;;;;;2.20;1.70;;;19.50;76.50;;;;;;5074292;28;20108;-55
2024/01/07 18:12:03;;;;;;;2.53;1.40;;;19.50;76.10;;;;;;5072040;28;20190;-55
2024/01/07 18:14:30;;;;;;;1.63;1.40;;;19.50;75.70;;;;;;5072873;28;20108;-55
2024/01/07 18:16:57;;;;;;;1.60;1.50;;;19.50;76.00;;;;;;5073959;28;20221;-55
2024/01/07 18:19:23;;;;;;;1.63;1.52;;;19.50;75.10;;;;;;5072251;28;20113;-54
2024/01/07 18:21:50;;;;;;;1.58;1.20;;;19.50;75.10;;;;;;5073753;28;20112;-57
2024/01/07 18:24:17;;;;;;;1.60;1.50;;;19.50;75.00;;;;;;5073493;28;20112;-54
2024/01/07 18:26:45;;;;;;;1.30;1.20;;;19.40;74.30;;;;;;5071842;28;20120;-54
2024/01/07 18:29:12;;;;;;;1.40;1.30;;;19.40;75.30;;;;;;5073630;28;20101;-57
2024/01/07 18:31:41;;;;;;;1.67;1.48;;;19.40;74.50;;;;;;5073420;28;20108;-56
2024/01/07 18:34:08;;;;;;;1.60;1.50;;;19.40;74.50;;;;;;5073600;28;20166;-54
2024/01/07 18:36:35;;;;;;;1.80;1.40;;;19.40;74.50;;;;;;5063914;28;20116;-54
2024/01/07 18:39:03;;;;;;;1.48;1.30;;;19.40;74.90;;;;;;5097695;27;20135;-57
2024/01/07 18:41:30;;;;;;;1.52;1.25;;;19.50;74.20;;;;;;5073538;28;20166;-55
2024/01/07 18:43:57;;;;;;;1.35;1.25;;;19.50;74.10;;;;;;5066532;28;20116;-54
2024/01/07 18:46:24;;;;;;;2.03;1.85;;;19.50;75.40;;;;;;5071952;28;20194;-54
2024/01/07 18:48:51;;;;;;;3.85;1.92;;;19.40;76.90;;;;;;5072749;28;20623;-56
2024/01/07 18:51:18;;;;;;;2.47;2.08;;;19.50;76.40;;;;;;5073173;28;20178;-55
2024/01/07 18:53:45;;;;;;;2.40;1.73;;;19.60;76.50;;;;;;5073216;28;20569;-54
2024/01/07 18:56:12;;;;;;;2.33;1.55;;;19.70;76.00;;;;;;5073546;28;20121;-54
2024/01/07 18:58:39;;;;;;;2.58;1.67;;;19.70;75.60;;;;;;5071814;28;20408;-54
2024/01/07 19:01:07;;;;;;;2.55;1.67;;;19.80;74.80;;;;;;5071637;28;20159;-56
2024/01/07 19:03:34;;;;;;;2.28;1.70;;;19.80;75.70;;;;;;5073223;28;20182;-56
2024/01/07 19:06:02;;;;;;;1.85;1.52;;;19.70;75.50;;;;;;5064728;28;20151;-55
2024/01/07 19:08:29;;;;;;;2.08;1.70;;;19.70;74.80;;;;;;5105775;27;20136;-53
2024/01/07 19:10:56;;;;;;;2.47;1.70;;;19.70;75.80;;;;;;5072476;28;20166;-53
2024/01/07 19:13:24;;;;;;;3.00;1.88;;;19.80;75.50;;;;;;5073020;28;20108;-56
2024/01/07 19:15:51;;;;;;;1.98;1.70;;;19.80;75.80;;;;;;5072545;28;20127;-54
2024/01/07 19:18:18;;;;;;;3.95;1.58;;;19.80;75.60;;;;;;5071481;28;20112;-53
2024/01/07 19:20:46;;;;;;;3.03;2.22;;;19.70;75.30;;;;;;5072915;28;20562;-53
2024/01/07 19:23:13;;;;;;;1.95;1.80;;;19.80;75.10;;;;;;5071212;28;20123;-61
